Time;durP1;ratioP1;P1;durP2;ratioP2;P2;SDS_P1;SDS_P2;PMS_P1;PMS_P2;Temp;Humidity;BMP_temperature;BMP_pressure;BME280_temperature;BME280_humidity;BME280_pressure;Samples;Min_cycle;Max_cycle;Signal;HPM_P1;HPM_P2
2022/07/24 00:01:30;;;;;;;18.60;15.50;;;26.40;33.70;;;;;;4977597;28;20234;-74
2022/07/24 00:03:55;;;;;;;23.93;16.70;;;26.40;34.50;;;;;;4976054;28;20194;-73
2022/07/24 00:06:22;;;;;;;20.53;15.23;;;26.10;36.40;;;;;;4978315;28;20200;-74
2022/07/24 00:08:47;;;;;;;22.67;16.27;;;25.90;36.00;;;;;;4977370;28;20189;-73
2022/07/24 00:11:13;;;;;;;18.93;15.70;;;25.90;36.70;;;;;;4973621;28;20453;-75
2022/07/24 00:13:38;;;;;;;23.50;15.10;;;26.00;37.10;;;;;;4973837;28;20186;-74
2022/07/24 00:16:05;;;;;;;25.37;16.27;;;25.90;36.90;;;;;;4975054;28;20381;-74
2022/07/24 00:18:30;;;;;;;21.37;16.23;;;25.80;36.70;;;;;;4974677;28;20245;-74
2022/07/24 00:20:56;;;;;;;24.30;16.60;;;25.70;37.60;;;;;;4974530;28;20437;-74
2022/07/24 00:23:23;;;;;;;22.13;16.10;;;25.80;36.60;;;;;;4973872;28;20183;-75
2022/07/24 00:25:48;;;;;;;21.70;15.80;;;25.80;37.40;;;;;;4975052;28;20179;-74
2022/07/24 00:28:14;;;;;;;19.73;16.20;;;25.90;36.80;;;;;;4973895;28;20441;-74
2022/07/24 00:30:40;;;;;;;21.50;16.07;;;25.80;36.90;;;;;;4975024;28;20186;-75
2022/07/24 00:33:06;;;;;;;24.30;16.77;;;25.80;37.60;;;;;;4972679;28;20197;-74
2022/07/24 00:35:32;;;;;;;22.07;15.47;;;26.00;36.80;;;;;;4972957;28;20607;-75
2022/07/24 00:37:58;;;;;;;21.10;15.87;;;25.90;37.60;;;;;;4974955;28;20190;-75
2022/07/24 00:40:24;;;;;;;22.03;15.90;;;25.80;37.90;;;;;;4974342;28;20426;-74
2022/07/24 00:42:50;;;;;;;23.17;16.53;;;25.60;38.30;;;;;;4972924;28;20206;-74
2022/07/24 00:45:16;;;;;;;20.10;16.57;;;25.40;38.50;;;;;;4973194;28;20548;-74
2022/07/24 00:47:42;;;;;;;21.00;16.80;;;25.50;37.60;;;;;;4974057;28;20430;-74
2022/07/24 00:50:08;;;;;;;20.57;16.33;;;25.70;37.80;;;;;;4973401;28;20434;-74
2022/07/24 00:52:34;;;;;;;19.63;15.43;;;25.70;38.40;;;;;;4973679;28;20198;-75
2022/07/24 00:55:00;;;;;;;19.07;15.77;;;25.50;38.00;;;;;;4973277;28;20434;-74
2022/07/24 00:57:25;;;;;;;25.03;16.80;;;25.40;39.00;;;;;;4972992;28;20301;-74
2022/07/24 00:59:51;;;;;;;23.13;16.60;;;25.20;39.00;;;;;;4974660;28;20202;-74
2022/07/24 01:02:17;;;;;;;24.27;17.33;;;25.20;39.80;;;;;;4973864;28;20616;-74
2022/07/24 01:04:42;;;;;;;22.67;16.27;;;25.10;40.10;;;;;;4973498;28;20265;-74
2022/07/24 01:07:08;;;;;;;20.30;17.17;;;25.40;39.10;;;;;;4972601;28;20560;-74
2022/07/24 01:09:34;;;;;;;21.23;16.30;;;25.30;40.20;;;;;;4974042;28;20179;-74
2022/07/24 01:12:01;;;;;;;19.60;16.23;;;25.30;40.20;;;;;;4973039;28;20228;-74
2022/07/24 01:14:27;;;;;;;19.80;15.73;;;25.50;37.60;;;;;;4973827;28;20456;-74
2022/07/24 01:16:53;;;;;;;22.83;16.90;;;25.40;39.30;;;;;;4972923;28;21048;-74
2022/07/24 01:19:18;;;;;;;25.43;17.47;;;25.20;40.20;;;;;;4974178;28;20774;-74
2022/07/24 01:21:52;;;;;;;21.07;16.70;;;25.10;40.60;;;;;;4958249;28;20611;-74
2022/07/24 01:24:19;;;;;;;25.20;17.07;;;25.00;40.30;;;;;;4973101;28;20182;-74
2022/07/24 01:26:46;;;;;;;21.43;16.50;;;24.90;42.30;;;;;;4972995;28;20904;-74
2022/07/24 01:29:12;;;;;;;22.00;16.43;;;24.90;41.60;;;;;;4971546;28;20480;-74
2022/07/24 01:31:37;;;;;;;23.13;16.87;;;24.80;41.70;;;;;;4972001;28;20497;-75
2022/07/24 01:34:04;;;;;;;25.17;17.20;;;24.80;40.90;;;;;;4973389;28;20194;-74
2022/07/24 01:36:30;;;;;;;26.43;16.97;;;24.90;41.10;;;;;;4972794;28;20220;-74
2022/07/24 01:38:55;;;;;;;19.43;16.10;;;24.70;41.20;;;;;;4972288;28;20437;-74
2022/07/24 01:41:21;;;;;;;22.50;16.20;;;24.70;41.10;;;;;;4973061;28;20202;-75
2022/07/24 01:43:47;;;;;;;21.53;17.83;;;24.90;41.40;;;;;;4972383;28;20190;-75
2022/07/24 01:46:12;;;;;;;20.10;16.97;;;24.70;41.20;;;;;;4973336;28;20196;-74
2022/07/24 01:48:39;;;;;;;20.47;16.73;;;24.80;41.00;;;;;;4972526;28;20189;-75
2022/07/24 01:51:05;;;;;;;22.40;18.00;;;25.00;40.20;;;;;;4972486;28;20343;-74
2022/07/24 01:53:31;;;;;;;20.60;17.20;;;24.70;40.60;;;;;;4972986;28;20518;-74
2022/07/24 01:55:56;;;;;;;21.73;17.53;;;24.70;41.50;;;;;;4972339;28;20366;-73
2022/07/24 01:58:22;;;;;;;22.53;17.47;;;24.60;42.30;;;;;;4973124;28;20169;-74
2022/07/24 02:00:48;;;;;;;21.20;17.60;;;24.50;41.10;;;;;;4970345;28;20212;-74
2022/07/24 02:03:14;;;;;;;20.60;17.10;;;24.50;41.20;;;;;;4972860;28;20709;-74
2022/07/24 02:05:39;;;;;;;23.20;17.63;;;24.40;42.50;;;;;;4973299;28;20187;-74
2022/07/24 02:08:05;;;;;;;24.40;16.90;;;24.40;43.40;;;;;;4972105;28;20200;-74
2022/07/24 02:10:31;;;;;;;23.67;18.00;;;24.40;41.90;;;;;;4970892;28;20195;-75
2022/07/24 02:12:57;;;;;;;21.17;17.77;;;24.70;42.60;;;;;;4971367;28;20207;-73
2022/07/24 02:15:23;;;;;;;23.80;17.00;;;24.50;41.20;;;;;;4972611;28;20642;-74
2022/07/24 02:17:50;;;;;;;20.47;17.43;;;24.50;42.50;;;;;;4973393;28;20419;-74
2022/07/24 02:20:17;;;;;;;19.70;16.20;;;24.50;43.20;;;;;;4970930;28;20190;-73
2022/07/24 02:22:42;;;;;;;22.90;16.63;;;24.70;41.20;;;;;;4971807;28;20964;-74
2022/07/24 02:25:09;;;;;;;23.00;16.80;;;24.70;41.30;;;;;;4971655;28;20444;-73
2022/07/24 02:27:35;;;;;;;23.07;17.70;;;24.40;42.40;;;;;;4972803;28;20562;-74
2022/07/24 02:30:02;;;;;;;21.83;17.00;;;24.40;42.80;;;;;;4972168;28;20444;-74
2022/07/24 02:32:27;;;;;;;22.70;16.93;;;24.40;42.40;;;;;;4971953;28;20456;-73
2022/07/24 02:34:53;;;;;;;21.23;16.90;;;24.40;43.10;;;;;;4955394;28;20477;-74
2022/07/24 02:37:18;;;;;;;24.53;17.90;;;24.20;43.90;;;;;;4955058;28;20205;-75
2022/07/24 02:39:44;;;;;;;21.43;18.13;;;24.20;42.80;;;;;;4971799;28;20257;-74
2022/07/24 02:42:10;;;;;;;26.87;19.40;;;24.10;43.40;;;;;;4970859;28;20205;-74
2022/07/24 02:44:35;;;;;;;25.10;18.53;;;24.10;44.50;;;;;;4972767;28;20279;-74
2022/07/24 02:47:01;;;;;;;24.63;18.17;;;24.00;43.20;;;;;;4971706;28;20190;-74
2022/07/24 02:49:26;;;;;;;28.87;18.03;;;24.10;44.00;;;;;;4971167;28;20720;-74
2022/07/24 02:51:52;;;;;;;30.33;18.40;;;24.00;43.40;;;;;;4971504;28;20210;-73
2022/07/24 02:54:17;;;;;;;18.93;16.67;;;24.00;44.80;;;;;;4972342;28;20195;-73
2022/07/24 02:56:43;;;;;;;20.37;17.20;;;23.90;44.40;;;;;;4971445;28;20267;-74
2022/07/24 02:59:09;;;;;;;21.77;17.13;;;;;;;;;;4972597;28;20180;-75
2022/07/24 03:01:35;;;;;;;20.00;16.93;;;23.90;43.40;;;;;;4970579;28;20252;-75
2022/07/24 03:04:00;;;;;;;24.43;17.53;;;23.70;45.10;;;;;;4971452;28;20785;-74
2022/07/24 03:06:26;;;;;;;31.30;17.13;;;23.80;45.20;;;;;;4972818;28;20184;-74
2022/07/24 03:08:52;;;;;;;21.33;17.17;;;23.60;44.40;;;;;;4972035;28;20191;-74
2022/07/24 03:11:17;;;;;;;22.43;16.73;;;23.70;44.10;;;;;;4970576;28;20287;-74
2022/07/24 03:13:43;;;;;;;26.57;19.20;;;23.60;43.80;;;;;;4970742;28;20191;-74
2022/07/24 03:16:09;;;;;;;25.23;19.20;;;23.60;45.00;;;;;;4972323;28;20248;-73
2022/07/24 03:18:35;;;;;;;24.20;20.20;;;23.60;45.60;;;;;;4972627;28;20647;-74
2022/07/24 03:21:01;;;;;;;23.67;18.47;;;24.00;43.50;;;;;;4970019;28;20453;-74
2022/07/24 03:23:26;;;;;;;22.83;18.73;;;24.20;43.00;;;;;;4971454;28;20196;-74
2022/07/24 03:25:54;;;;;;;30.70;19.47;;;24.10;43.30;;;;;;4970599;28;20195;-74
2022/07/24 03:28:19;;;;;;;25.80;19.37;;;24.10;43.50;;;;;;4972277;28;20176;-74
2022/07/24 03:30:45;;;;;;;24.40;19.70;;;23.70;45.20;;;;;;4971845;28;20425;-74
2022/07/24 03:33:11;;;;;;;24.57;19.00;;;23.70;45.70;;;;;;4971803;28;20680;-73
2022/07/24 03:35:36;;;;;;;20.20;17.07;;;23.80;45.60;;;;;;4968832;28;20662;-74
2022/07/24 03:38:02;;;;;;;22.87;18.33;;;23.80;44.00;;;;;;4971951;28;20182;-74
2022/07/24 03:40:28;;;;;;;26.93;19.10;;;23.60;44.80;;;;;;4972199;28;20269;-74
2022/07/24 03:42:54;;;;;;;24.10;18.53;;;23.50;46.10;;;;;;4971522;28;20427;-74
2022/07/24 03:45:20;;;;;;;21.20;17.67;;;23.50;46.50;;;;;;4972204;28;20428;-74
2022/07/24 03:47:45;;;;;;;25.13;17.97;;;23.50;46.00;;;;;;4963881;28;20259;-74
2022/07/24 03:50:11;;;;;;;22.30;18.33;;;23.50;46.50;;;;;;4975132;28;20181;-73
2022/07/24 03:52:37;;;;;;;24.20;17.93;;;23.60;46.30;;;;;;4975136;28;20258;-74
2022/07/24 03:55:03;;;;;;;26.80;18.90;;;23.60;46.10;;;;;;5003710;23;20271;-70
2022/07/24 03:57:29;;;;;;;23.53;17.77;;;23.50;45.20;;;;;;4987230;28;20611;-70
2022/07/24 03:59:54;;;;;;;26.20;17.70;;;23.40;46.30;;;;;;4994308;28;20500;-70
2022/07/24 04:02:20;;;;;;;26.97;17.93;;;23.50;45.80;;;;;;4994303;28;20181;-70
2022/07/24 04:04:45;;;;;;;26.07;17.57;;;23.40;46.00;;;;;;4994341;28;20294;-71
2022/07/24 04:07:11;;;;;;;21.60;16.90;;;23.40;45.10;;;;;;4987441;28;20186;-70
2022/07/24 04:09:37;;;;;;;24.60;16.90;;;23.50;45.00;;;;;;4975262;28;20631;-70
2022/07/24 04:12:03;;;;;;;21.63;16.90;;;23.70;44.60;;;;;;4974864;28;20230;-70
2022/07/24 04:14:28;;;;;;;25.43;16.63;;;23.70;45.10;;;;;;4978876;28;20210;-69
2022/07/24 04:16:54;;;;;;;20.57;17.37;;;23.70;45.10;;;;;;4976262;28;20669;-70
2022/07/24 04:19:20;;;;;;;22.13;16.93;;;23.60;45.50;;;;;;4972066;28;20191;-70
2022/07/24 04:21:45;;;;;;;24.47;17.80;;;23.70;45.20;;;;;;4962225;28;20242;-70
2022/07/24 04:24:11;;;;;;;33.83;17.17;;;23.70;45.60;;;;;;4979724;28;20202;-70
2022/07/24 04:26:37;;;;;;;21.63;17.43;;;23.60;45.10;;;;;;4982804;28;20652;-71
2022/07/24 04:29:03;;;;;;;21.30;16.10;;;23.50;44.90;;;;;;4975722;28;20197;-70
2022/07/24 04:31:28;;;;;;;22.07;16.50;;;23.40;46.00;;;;;;4964223;28;20269;-70
2022/07/24 04:33:54;;;;;;;28.20;16.83;;;23.40;45.00;;;;;;4955305;29;20436;-70
2022/07/24 04:36:20;;;;;;;22.17;15.87;;;23.50;45.00;;;;;;4964717;28;20201;-70
2022/07/24 04:38:45;;;;;;;29.50;17.80;;;23.60;45.00;;;;;;4977432;28;20194;-70
2022/07/24 04:41:11;;;;;;;30.43;20.00;;;23.40;44.80;;;;;;4974214;28;20182;-70
2022/07/24 04:43:37;;;;;;;25.13;19.30;;;22.90;46.90;;;;;;4969572;28;20177;-70
2022/07/24 04:46:03;;;;;;;25.17;20.00;;;23.00;47.40;;;;;;4979364;28;20435;-71
2022/07/24 04:48:28;;;;;;;25.87;20.57;;;23.10;47.00;;;;;;4982410;28;20213;-70
2022/07/24 04:50:54;;;;;;;33.93;21.07;;;23.40;47.20;;;;;;4981565;28;20641;-70
2022/07/24 04:53:20;;;;;;;24.83;21.73;;;23.50;46.30;;;;;;4993545;28;20187;-70
2022/07/24 04:55:45;;;;;;;29.97;21.97;;;23.60;45.00;;;;;;4993260;28;20214;-70
2022/07/24 04:58:11;;;;;;;28.13;21.67;;;23.40;46.30;;;;;;4986858;28;20186;-70
2022/07/24 05:00:37;;;;;;;27.33;21.90;;;23.40;45.10;;;;;;4981858;28;20256;-70
2022/07/24 05:03:03;;;;;;;29.73;21.23;;;23.40;45.60;;;;;;4974019;28;20181;-70
2022/07/24 05:05:28;;;;;;;27.23;21.30;;;23.00;46.90;;;;;;4974325;28;20208;-70
2022/07/24 05:07:54;;;;;;;26.33;20.70;;;23.30;46.60;;;;;;4973845;28;20176;-70
2022/07/24 05:10:19;;;;;;;27.93;19.80;;;23.20;46.00;;;;;;4978445;28;20182;-70
2022/07/24 05:12:45;;;;;;;29.10;18.83;;;23.40;46.00;;;;;;4969794;28;20231;-70
2022/07/24 05:15:11;;;;;;;24.70;17.53;;;23.50;44.90;;;;;;4974244;28;20572;-70
2022/07/24 05:17:37;;;;;;;31.23;17.97;;;23.50;45.20;;;;;;4973673;28;20243;-70
2022/07/24 05:20:04;;;;;;;27.70;20.73;;;23.70;45.10;;;;;;4975414;28;20312;-70
2022/07/24 05:22:30;;;;;;;25.60;20.40;;;23.90;45.00;;;;;;4978159;28;20429;-72
2022/07/24 05:24:55;;;;;;;27.03;21.93;;;24.00;45.20;;;;;;4973510;28;20892;-70
2022/07/24 05:27:21;;;;;;;25.03;21.03;;;24.10;43.80;;;;;;4956503;28;20281;-70
2022/07/24 05:29:47;;;;;;;30.10;22.07;;;24.00;42.60;;;;;;4975301;28;20192;-70
2022/07/24 05:32:13;;;;;;;31.37;22.60;;;23.80;43.20;;;;;;4975327;28;20499;-70
2022/07/24 05:34:38;;;;;;;30.83;20.90;;;23.70;43.60;;;;;;4960216;28;20202;-70
2022/07/24 05:37:04;;;;;;;33.30;23.43;;;23.60;44.30;;;;;;4976944;28;20290;-70
2022/07/24 05:39:30;;;;;;;30.27;23.40;;;23.20;45.20;;;;;;4973472;28;20569;-70
2022/07/24 05:41:55;;;;;;;25.20;19.43;;;23.40;45.40;;;;;;4973303;28;20217;-70
2022/07/24 05:44:21;;;;;;;23.43;17.80;;;23.40;44.80;;;;;;4972663;28;20198;-70
2022/07/24 05:46:47;;;;;;;30.70;17.63;;;23.40;45.70;;;;;;4973471;28;20190;-70
2022/07/24 05:49:13;;;;;;;23.90;18.53;;;23.20;45.20;;;;;;4973577;28;20627;-70
2022/07/24 05:51:39;;;;;;;22.07;16.30;;;23.20;46.60;;;;;;4971459;28;20201;-71
2022/07/24 05:54:04;;;;;;;25.23;16.30;;;23.30;44.70;;;;;;4972193;28;20467;-70
2022/07/24 05:56:30;;;;;;;24.80;16.40;;;23.40;44.50;;;;;;4967738;28;20867;-70
2022/07/24 05:58:56;;;;;;;22.23;16.70;;;23.60;45.00;;;;;;4972760;28;20237;-70
2022/07/24 06:01:22;;;;;;;23.50;16.20;;;24.10;43.90;;;;;;4967801;28;20430;-70
2022/07/24 06:03:48;;;;;;;21.20;15.63;;;24.60;41.40;;;;;;4972415;28;20204;-70
2022/07/24 06:06:14;;;;;;;21.33;16.23;;;24.70;40.80;;;;;;4973000;28;20440;-69
2022/07/24 06:08:39;;;;;;;26.87;16.90;;;24.70;42.50;;;;;;4973436;28;20178;-70
2022/07/24 06:11:05;;;;;;;19.37;16.20;;;24.50;41.10;;;;;;4973005;28;20564;-71
2022/07/24 06:13:31;;;;;;;23.80;17.70;;;24.80;40.10;;;;;;4977219;28;20270;-70
2022/07/24 06:15:57;;;;;;;22.83;16.27;;;25.30;38.10;;;;;;4972225;28;20489;-70
2022/07/24 06:18:22;;;;;;;23.20;16.80;;;25.30;38.50;;;;;;4970994;28;20178;-69
2022/07/24 06:20:48;;;;;;;29.57;16.40;;;25.10;39.50;;;;;;4974773;28;20184;-69
2022/07/24 06:23:14;;;;;;;22.73;16.37;;;25.20;39.60;;;;;;4972496;28;20657;-69
2022/07/24 06:25:39;;;;;;;22.90;16.47;;;25.20;41.40;;;;;;4972581;28;20241;-69
2022/07/24 06:28:05;;;;;;;20.90;15.40;;;25.20;39.70;;;;;;4972406;28;20801;-70
2022/07/24 06:30:32;;;;;;;25.23;15.60;;;25.10;39.30;;;;;;4981317;28;20660;-69
2022/07/24 06:32:59;;;;;;;21.40;16.07;;;25.40;39.70;;;;;;4983845;28;20192;-69
2022/07/24 06:35:26;;;;;;;27.90;15.70;;;25.60;39.20;;;;;;4971650;28;20454;-69
2022/07/24 06:37:52;;;;;;;30.67;16.10;;;25.00;39.30;;;;;;4977393;28;20504;-68
2022/07/24 06:40:19;;;;;;;25.00;14.70;;;25.10;40.50;;;;;;4973493;28;20402;-69
2022/07/24 06:42:48;;;;;;;21.97;15.70;;;24.90;39.10;;;;;;4969413;28;20425;-69
2022/07/24 06:45:14;;;;;;;25.43;15.37;;;24.30;41.70;;;;;;4972202;28;20473;-70
2022/07/24 06:47:41;;;;;;;21.83;14.87;;;24.30;41.10;;;;;;4953648;28;20441;-70
2022/07/24 06:50:07;;;;;;;16.33;13.70;;;24.30;41.30;;;;;;4972673;28;20420;-69
2022/07/24 06:52:33;;;;;;;18.30;13.50;;;25.10;40.30;;;;;;4968126;28;20480;-71
2022/07/24 06:54:59;;;;;;;18.43;14.47;;;25.60;38.00;;;;;;4971551;28;20465;-69
2022/07/24 06:57:25;;;;;;;17.23;13.80;;;25.80;36.10;;;;;;4971570;28;20210;-69
2022/07/24 06:59:52;;;;;;;17.07;13.80;;;25.40;36.60;;;;;;4971766;28;20175;-69
2022/07/24 07:02:18;;;;;;;18.37;13.13;;;25.60;36.50;;;;;;4973676;28;20417;-69
2022/07/24 07:04:44;;;;;;;24.87;14.90;;;25.80;35.00;;;;;;4971126;28;20461;-69
2022/07/24 07:07:10;;;;;;;20.13;14.20;;;25.60;35.60;;;;;;4971553;28;20437;-68
2022/07/24 07:09:35;;;;;;;22.20;15.87;;;25.40;37.00;;;;;;4975378;28;20190;-68
2022/07/24 07:12:02;;;;;;;25.47;15.20;;;25.00;37.90;;;;;;4975387;28;20256;-68
2022/07/24 07:14:28;;;;;;;18.03;13.67;;;25.40;36.50;;;;;;4974164;28;20202;-68
2022/07/24 07:16:53;;;;;;;19.10;13.17;;;26.10;34.60;;;;;;4970467;28;20455;-68
2022/07/24 07:19:19;;;;;;;17.17;13.00;;;26.00;34.00;;;;;;4975538;28;20197;-68
2022/07/24 07:21:44;;;;;;;21.00;13.50;;;26.10;33.40;;;;;;4980017;28;20535;-69
2022/07/24 07:24:10;;;;;;;15.60;12.40;;;26.00;34.80;;;;;;4975711;28;20273;-68
2022/07/24 07:26:36;;;;;;;16.50;11.67;;;25.50;34.80;;;;;;4986315;28;20317;-71
2022/07/24 07:29:02;;;;;;;17.03;11.13;;;25.60;35.80;;;;;;4973166;28;20437;-68
2022/07/24 07:31:28;;;;;;;19.33;12.30;;;26.30;34.10;;;;;;4973763;28;20264;-69
2022/07/24 07:33:53;;;;;;;22.77;11.20;;;26.90;31.40;;;;;;4973910;28;20210;-69
2022/07/24 07:36:19;;;;;;;17.83;11.73;;;27.20;30.90;;;;;;4975892;28;20206;-69
2022/07/24 07:38:45;;;;;;;14.30;10.80;;;27.30;30.70;;;;;;4974311;28;20182;-69
2022/07/24 07:41:11;;;;;;;17.47;11.73;;;27.00;30.20;;;;;;4975240;28;20216;-69
2022/07/24 07:43:37;;;;;;;15.73;11.20;;;26.40;31.50;;;;;;4979822;28;20605;-70
2022/07/24 07:46:03;;;;;;;14.93;10.90;;;26.90;31.80;;;;;;4973452;28;20476;-69
2022/07/24 07:48:30;;;;;;;14.90;11.60;;;27.20;30.70;;;;;;4973417;28;20190;-69
2022/07/24 07:50:56;;;;;;;15.97;11.40;;;27.50;30.00;;;;;;4973992;28;20479;-69
2022/07/24 07:53:21;;;;;;;14.27;10.60;;;27.40;29.70;;;;;;4975474;28;20862;-70
2022/07/24 07:55:51;;;;;;;18.13;11.80;;;27.40;28.60;;;;;;4975579;28;20186;-69
2022/07/24 07:58:17;;;;;;;12.70;10.40;;;27.00;30.80;;;;;;4975275;28;20248;-69
2022/07/24 08:00:42;;;;;;;15.60;10.67;;;27.20;29.00;;;;;;4974828;28;20429;-70
2022/07/24 08:03:08;;;;;;;14.47;11.37;;;27.10;28.30;;;;;;4974110;28;20927;-69
2022/07/24 08:05:34;;;;;;;14.10;10.63;;;27.10;29.60;;;;;;4975275;28;20628;-69
2022/07/24 08:07:59;;;;;;;19.60;12.20;;;26.90;29.00;;;;;;4969886;28;20183;-69
2022/07/24 08:10:25;;;;;;;14.03;11.00;;;27.40;29.20;;;;;;4972124;28;20233;-71
2022/07/24 08:12:51;;;;;;;14.20;10.50;;;27.70;29.70;;;;;;4958188;28;20213;-69
2022/07/24 08:15:17;;;;;;;14.30;11.23;;;27.60;27.50;;;;;;4974521;28;20206;-70
2022/07/24 08:17:42;;;;;;;20.30;11.20;;;27.60;27.80;;;;;;4974600;28;21004;-69
2022/07/24 08:20:09;;;;;;;20.37;10.93;;;27.50;28.90;;;;;;4971270;28;20197;-68
2022/07/24 08:22:34;;;;;;;15.03;11.33;;;27.10;29.00;;;;;;4971764;28;20198;-68
2022/07/24 08:25:00;;;;;;;12.47;10.90;;;27.30;29.60;;;;;;4970448;28;20964;-68
2022/07/24 08:27:26;;;;;;;25.30;11.10;;;27.50;28.20;;;;;;4972519;28;20193;-68
2022/07/24 08:29:51;;;;;;;16.37;11.90;;;27.60;27.70;;;;;;4970924;28;20655;-68
2022/07/24 08:32:17;;;;;;;13.77;10.57;;;27.20;28.40;;;;;;4973657;28;20186;-68
2022/07/24 08:34:42;;;;;;;16.47;10.83;;;27.40;28.10;;;;;;4974409;28;20210;-69
2022/07/24 08:37:08;;;;;;;14.10;11.33;;;27.60;27.60;;;;;;4973854;28;20708;-67
2022/07/24 08:39:34;;;;;;;14.47;10.73;;;28.00;27.40;;;;;;4973154;28;20182;-67
2022/07/24 08:41:59;;;;;;;12.93;10.37;;;27.70;27.30;;;;;;4972477;28;20185;-68
2022/07/24 08:44:25;;;;;;;23.87;10.77;;;27.80;27.70;;;;;;4972242;28;20207;-68
2022/07/24 08:46:54;;;;;;;12.30;9.77;;;27.80;26.90;;;;;;4973686;28;20189;-68
2022/07/24 08:49:20;;;;;;;14.03;10.80;;;28.20;27.10;;;;;;4972674;28;20183;-68
2022/07/24 08:51:48;;;;;;;12.90;10.70;;;27.90;26.40;;;;;;4972154;28;20450;-68
2022/07/24 08:54:14;;;;;;;17.73;10.10;;;28.00;27.80;;;;;;4972073;28;20485;-68
2022/07/24 08:56:42;;;;;;;15.10;10.53;;;27.60;27.40;;;;;;4971314;28;21027;-68
2022/07/24 08:59:19;;;;;;;16.80;11.50;;;28.40;26.20;;;;;;4972262;28;20194;-68
2022/07/24 09:01:47;;;;;;;17.23;11.67;;;28.40;26.80;;;;;;4973737;28;20520;-68
2022/07/24 09:04:34;;;;;;;13.87;11.33;;;28.90;26.00;;;;;;4972783;28;20500;-68
2022/07/24 09:07:01;;;;;;;16.23;11.60;;;28.90;26.10;;;;;;4971984;28;20803;-68
2022/07/24 09:09:26;;;;;;;18.03;11.43;;;29.30;25.10;;;;;;4972423;28;20433;-68
2022/07/24 09:12:21;;;;;;;22.00;10.67;;;28.80;25.70;;;;;;4972953;28;20449;-68
2022/07/24 09:14:48;;;;;;;12.70;11.00;;;28.30;26.40;;;;;;4884113;29;20796;-71
2022/07/24 09:17:16;;;;;;;16.87;10.43;;;28.00;27.10;;;;;;4889791;29;20470;-69
2022/07/24 09:19:55;;;;;;;15.10;11.80;;;27.80;27.40;;;;;;4893235;29;20436;-70
2022/07/24 09:22:38;;;;;;;15.80;11.03;;;27.90;27.90;;;;;;4899623;29;20816;-68
2022/07/24 09:25:24;;;;;;;16.77;12.07;;;28.60;26.50;;;;;;4897904;29;20559;-68
2022/07/24 09:27:58;;;;;;;20.47;11.87;;;29.20;26.20;;;;;;4888861;29;20505;-70
2022/07/24 09:30:36;;;;;;;15.77;11.27;;;29.70;24.80;;;;;;4899278;29;20452;-68
2022/07/24 09:33:16;;;;;;;14.73;12.43;;;30.20;24.40;;;;;;4891425;29;20430;-68
2022/07/24 09:35:52;;;;;;;13.80;11.00;;;30.20;25.50;;;;;;4884599;29;20457;-67
2022/07/24 09:38:23;;;;;;;15.57;11.33;;;29.90;24.70;;;;;;4881566;29;20479;-67
2022/07/24 09:40:56;;;;;;;17.03;11.53;;;29.10;25.20;;;;;;4895088;29;20441;-67
2022/07/24 09:43:24;;;;;;;15.77;11.10;;;29.50;25.00;;;;;;4883649;29;20949;-67
2022/07/24 09:45:59;;;;;;;16.20;11.67;;;30.00;23.50;;;;;;4886130;29;20425;-67
2022/07/24 09:48:29;;;;;;;13.43;11.57;;;29.60;24.20;;;;;;4887362;29;20516;-68
2022/07/24 09:51:01;;;;;;;12.00;11.10;;;29.50;26.40;;;;;;4913242;28;20426;-68
2022/07/24 09:53:30;;;;;;;14.90;11.00;;;30.10;24.90;;;;;;4973004;28;20413;-68
2022/07/24 09:55:57;;;;;;;18.47;11.97;;;30.30;24.70;;;;;;4972435;28;20446;-68
2022/07/24 09:58:24;;;;;;;14.17;10.77;;;30.60;23.10;;;;;;4977678;28;20422;-68
2022/07/24 10:00:55;;;;;;;12.53;10.47;;;30.10;24.10;;;;;;4970332;28;20959;-68
2022/07/24 10:03:25;;;;;;;14.87;11.50;;;30.20;23.80;;;;;;4968049;28;20425;-68
2022/07/24 10:05:55;;;;;;;13.60;11.20;;;30.50;23.30;;;;;;4964681;28;20426;-68
2022/07/24 10:08:21;;;;;;;13.60;11.30;;;30.00;24.20;;;;;;4973288;28;20414;-69
2022/07/24 10:10:49;;;;;;;13.33;10.50;;;29.60;24.20;;;;;;4963176;28;20429;-69
2022/07/24 10:13:15;;;;;;;15.23;11.03;;;29.70;24.00;;;;;;4966208;28;20487;-68
2022/07/24 10:15:49;;;;;;;15.93;10.97;;;29.50;24.00;;;;;;4972787;28;21028;-69
2022/07/24 10:18:16;;;;;;;14.40;10.17;;;29.20;24.70;;;;;;4962009;28;20632;-68
2022/07/24 10:20:44;;;;;;;14.53;10.83;;;29.10;24.90;;;;;;4960814;28;20539;-68
2022/07/24 10:23:25;;;;;;;12.63;10.27;;;30.00;24.00;;;;;;4965615;28;20425;-67
2022/07/24 10:26:06;;;;;;;15.93;11.00;;;30.50;23.20;;;;;;4971957;28;20414;-67
2022/07/24 10:28:41;;;;;;;13.47;11.13;;;29.70;22.60;;;;;;4972941;28;20418;-68
2022/07/24 10:31:13;;;;;;;14.43;11.30;;;30.00;22.50;;;;;;4961603;28;20460;-67
2022/07/24 10:33:40;;;;;;;15.13;10.93;;;30.60;22.00;;;;;;4968111;28;20779;-67
2022/07/24 10:36:19;;;;;;;16.67;11.10;;;30.50;21.80;;;;;;4964535;28;20469;-68
2022/07/24 10:38:55;;;;;;;12.37;10.30;;;30.20;22.40;;;;;;4971155;28;20940;-67
2022/07/24 10:41:25;;;;;;;20.57;11.27;;;30.00;22.10;;;;;;4944675;28;20517;-67
2022/07/24 10:44:14;;;;;;;16.90;10.57;;;29.90;22.80;;;;;;4968582;28;20445;-67
2022/07/24 10:46:58;;;;;;;16.53;11.07;;;30.00;23.20;;;;;;4967039;28;20429;-69
2022/07/24 10:49:38;;;;;;;15.60;10.40;;;30.60;23.20;;;;;;4962500;28;20956;-68
2022/07/24 10:52:04;;;;;;;13.60;10.70;;;31.30;21.90;;;;;;4968834;28;20840;-69
2022/07/24 10:54:30;;;;;;;16.90;10.30;;;30.80;21.90;;;;;;4968554;28;20521;-70
2022/07/24 10:56:56;;;;;;;18.80;10.10;;;31.60;22.60;;;;;;4970490;28;20457;-69
2022/07/24 10:59:36;;;;;;;11.70;10.60;;;31.90;22.50;;;;;;4971892;28;20187;-69
2022/07/24 11:02:29;;;;;;;12.57;10.07;;;31.70;20.80;;;;;;4963107;28;20257;-70
2022/07/24 11:05:25;;;;;;;16.47;10.37;;;32.40;20.10;;;;;;4960785;28;20461;-69
2022/07/24 11:08:11;;;;;;;15.13;10.40;;;33.00;19.60;;;;;;4966480;28;20817;-71
2022/07/24 11:10:48;;;;;;;12.63;10.43;;;33.20;19.90;;;;;;4966083;28;20953;-69
2022/07/24 11:13:32;;;;;;;14.00;9.93;;;33.70;19.50;;;;;;4964063;28;20488;-69
2022/07/24 11:16:10;;;;;;;10.90;9.60;;;33.70;19.30;;;;;;4963923;28;20461;-69
2022/07/24 11:18:41;;;;;;;13.73;10.40;;;33.40;19.70;;;;;;4964233;28;20497;-69
2022/07/24 11:21:08;;;;;;;12.20;10.37;;;33.00;20.20;;;;;;4964482;28;20932;-70
2022/07/24 11:23:34;;;;;;;13.47;10.47;;;33.50;20.20;;;;;;4970741;28;20430;-69
2022/07/24 11:26:30;;;;;;;13.20;9.80;;;33.70;19.30;;;;;;4965329;28;20427;-69
2022/07/24 11:29:27;;;;;;;12.40;9.40;;;34.00;18.10;;;;;;4966213;28;20421;-69
2022/07/24 11:32:10;;;;;;;11.90;9.93;;;34.30;19.30;;;;;;4970914;28;20451;-70
2022/07/24 11:34:37;;;;;;;15.50;9.97;;;34.80;18.40;;;;;;4963763;28;20453;-70
2022/07/24 11:37:06;;;;;;;12.20;9.90;;;35.40;15.70;;;;;;4966054;28;20466;-69
2022/07/24 11:39:37;;;;;;;10.77;9.50;;;34.80;16.90;;;;;;4969760;28;20944;-70
2022/07/24 11:42:05;;;;;;;14.43;9.80;;;35.10;19.10;;;;;;4971411;28;20795;-70
2022/07/24 11:44:37;;;;;;;11.53;9.20;;;35.60;16.40;;;;;;4963647;28;20819;-70
2022/07/24 11:47:22;;;;;;;11.17;9.20;;;36.50;16.30;;;;;;4971892;28;20436;-70
2022/07/24 11:49:54;;;;;;;13.43;9.40;;;37.30;13.60;;;;;;4971291;28;20481;-71
2022/07/24 11:52:24;;;;;;;15.73;9.23;;;37.50;13.50;;;;;;4963223;28;20556;-71
2022/07/24 11:54:51;;;;;;;11.23;9.23;;;37.20;15.40;;;;;;4968065;28;20552;-70
2022/07/24 11:57:20;;;;;;;11.33;8.80;;;37.80;13.70;;;;;;4960446;28;20469;-70
2022/07/24 11:59:48;;;;;;;13.23;8.50;;;37.80;13.20;;;;;;4970183;28;20425;-72
2022/07/24 12:02:14;;;;;;;15.57;9.00;;;37.50;14.10;;;;;;4963340;28;20472;-71
2022/07/24 12:04:41;;;;;;;9.43;8.20;;;37.80;13.90;;;;;;4963584;28;20453;-70
2022/07/24 12:07:12;;;;;;;14.10;9.03;;;37.80;13.60;;;;;;4974122;28;20426;-70
2022/07/24 12:09:45;;;;;;;9.70;7.90;;;37.70;13.10;;;;;;4967160;28;20426;-71
2022/07/24 12:12:18;;;;;;;10.80;8.23;;;37.50;12.90;;;;;;4974519;28;20461;-70
2022/07/24 12:14:45;;;;;;;11.67;8.60;;;37.10;13.30;;;;;;4966577;28;20445;-69
2022/07/24 12:17:11;;;;;;;11.43;8.30;;;37.10;14.10;;;;;;4974973;28;20468;-69
2022/07/24 12:19:36;;;;;;;11.53;8.23;;;36.10;14.20;;;;;;4975243;28;20426;-70
2022/07/24 12:22:02;;;;;;;10.50;8.60;;;36.80;13.80;;;;;;4970767;28;20171;-71
2022/07/24 12:24:31;;;;;;;11.03;8.77;;;35.40;14.00;;;;;;4963126;28;20710;-69
2022/07/24 12:26:58;;;;;;;10.20;8.40;;;34.40;16.20;;;;;;4965464;28;20209;-70
2022/07/24 12:29:26;;;;;;;12.23;8.40;;;35.00;15.50;;;;;;4975101;28;21194;-70
2022/07/24 12:32:17;;;;;;;9.10;8.60;;;36.10;15.90;;;;;;4965890;28;20434;-69